sensor_id;sensor_type;location;lat;lon;timestamp;pressure;altitude;pressure_sealevel;temperature;humidity
44131;BME280;29792;48.726;9.248;2022-08-01T00:00:17;96980.56;;;21.74;53.93
44131;BME280;29792;48.726;9.248;2022-08-01T00:02:42;96983.59;;;21.71;54.63
44131;BME280;29792;48.726;9.248;2022-08-01T00:05:08;96975.16;;;21.69;54.78
44131;BME280;29792;48.726;9.248;2022-08-01T00:07:34;96974.53;;;21.67;55.22
44131;BME280;29792;48.726;9.248;2022-08-01T00:10:01;96975.75;;;21.64;55.47
44131;BME280;29792;48.726;9.248;2022-08-01T00:12:26;96977.28;;;21.59;55.52
44131;BME280;29792;48.726;9.248;2022-08-01T00:14:51;96979.25;;;21.50;55.44
44131;BME280;29792;48.726;9.248;2022-08-01T00:17:17;96975.81;;;21.43;55.66
44131;BME280;29792;48.726;9.248;2022-08-01T00:19:42;96980.34;;;21.35;56.28
44131;BME280;29792;48.726;9.248;2022-08-01T00:22:07;96978.72;;;21.27;56.31
44131;BME280;29792;48.726;9.248;2022-08-01T00:24:33;96978.84;;;21.19;56.55
44131;BME280;29792;48.726;9.248;2022-08-01T00:26:58;96983.81;;;21.14;57.20
44131;BME280;29792;48.726;9.248;2022-08-01T00:29:23;96984.38;;;21.09;57.33
44131;BME280;29792;48.726;9.248;2022-08-01T00:31:48;96994.72;;;21.03;57.61
44131;BME280;29792;48.726;9.248;2022-08-01T00:34:13;97000.88;;;20.95;57.93
44131;BME280;29792;48.726;9.248;2022-08-01T00:36:39;96998.84;;;20.90;58.07
44131;BME280;29792;48.726;9.248;2022-08-01T00:39:04;96990.97;;;20.84;58.37
44131;BME280;29792;48.726;9.248;2022-08-01T00:41:29;96989.13;;;20.78;58.06
44131;BME280;29792;48.726;9.248;2022-08-01T00:43:55;96997.88;;;20.70;58.65
44131;BME280;29792;48.726;9.248;2022-08-01T00:46:20;96995.22;;;20.64;58.98
44131;BME280;29792;48.726;9.248;2022-08-01T00:48:45;96992.53;;;20.57;58.98
44131;BME280;29792;48.726;9.248;2022-08-01T00:51:11;96989.88;;;20.50;59.53
44131;BME280;29792;48.726;9.248;2022-08-01T00:53:38;96997.59;;;20.44;60.02
44131;BME280;29792;48.726;9.248;2022-08-01T00:56:04;96998.34;;;20.38;59.92
44131;BME280;29792;48.726;9.248;2022-08-01T00:58:29;96993.69;;;20.33;60.38
44131;BME280;29792;48.726;9.248;2022-08-01T01:00:57;96998.44;;;20.30;60.74
44131;BME280;29792;48.726;9.248;2022-08-01T01:03:23;96995.41;;;20.26;60.86
44131;BME280;29792;48.726;9.248;2022-08-01T01:06:05;96994.50;;;20.19;61.40
44131;BME280;29792;48.726;9.248;2022-08-01T01:08:36;96996.06;;;20.13;61.58
44131;BME280;29792;48.726;9.248;2022-08-01T01:11:09;96995.16;;;20.06;61.69
44131;BME280;29792;48.726;9.248;2022-08-01T01:13:42;96993.31;;;20.00;61.89
44131;BME280;29792;48.726;9.248;2022-08-01T01:16:15;96992.22;;;19.95;62.48
44131;BME280;29792;48.726;9.248;2022-08-01T01:18:45;96994.41;;;19.91;62.73
44131;BME280;29792;48.726;9.248;2022-08-01T01:23:58;96996.75;;;19.86;63.53
44131;BME280;29792;48.726;9.248;2022-08-01T01:26:43;97001.13;;;19.86;63.61
44131;BME280;29792;48.726;9.248;2022-08-01T01:32:15;96999.50;;;19.85;64.51
44131;BME280;29792;48.726;9.248;2022-08-01T01:34:43;97000.13;;;19.87;64.41
44131;BME280;29792;48.726;9.248;2022-08-01T01:37:14;96995.13;;;19.85;65.00
44131;BME280;29792;48.726;9.248;2022-08-01T01:39:41;96995.72;;;19.87;64.52
44131;BME280;29792;48.726;9.248;2022-08-01T01:42:07;96994.56;;;19.90;64.67
44131;BME280;29792;48.726;9.248;2022-08-01T01:44:34;97003.81;;;19.92;65.03
44131;BME280;29792;48.726;9.248;2022-08-01T01:47:00;97007.03;;;19.94;65.22
44131;BME280;29792;48.726;9.248;2022-08-01T01:49:27;97005.03;;;19.96;65.12
44131;BME280;29792;48.726;9.248;2022-08-01T01:51:54;97012.03;;;19.96;65.08
44131;BME280;29792;48.726;9.248;2022-08-01T01:54:22;97008.28;;;19.98;65.53
44131;BME280;29792;48.726;9.248;2022-08-01T01:56:49;97005.50;;;20.00;65.76
44131;BME280;29792;48.726;9.248;2022-08-01T01:59:20;97011.34;;;20.02;65.45
44131;BME280;29792;48.726;9.248;2022-08-01T02:01:51;97011.94;;;20.04;65.42
44131;BME280;29792;48.726;9.248;2022-08-01T02:04:18;97004.94;;;20.04;65.49
44131;BME280;29792;48.726;9.248;2022-08-01T02:06:46;97005.75;;;20.05;65.64
44131;BME280;29792;48.726;9.248;2022-08-01T02:09:14;96998.94;;;20.04;65.63
44131;BME280;29792;48.726;9.248;2022-08-01T02:11:41;97000.56;;;20.05;65.92
44131;BME280;29792;48.726;9.248;2022-08-01T02:14:07;97007.38;;;20.06;66.05
44131;BME280;29792;48.726;9.248;2022-08-01T02:16:36;97008.19;;;20.06;66.22
44131;BME280;29792;48.726;9.248;2022-08-01T02:19:02;97005.56;;;20.06;66.38
44131;BME280;29792;48.726;9.248;2022-08-01T02:22:01;97010.16;;;20.04;66.68
44131;BME280;29792;48.726;9.248;2022-08-01T02:24:52;97011.75;;;20.05;66.58
44131;BME280;29792;48.726;9.248;2022-08-01T02:30:20;97006.38;;;20.07;66.61
44131;BME280;29792;48.726;9.248;2022-08-01T02:32:51;97017.78;;;20.06;66.91
44131;BME280;29792;48.726;9.248;2022-08-01T02:35:25;97019.56;;;20.05;67.15
44131;BME280;29792;48.726;9.248;2022-08-01T02:37:53;97018.56;;;20.06;67.04
44131;BME280;29792;48.726;9.248;2022-08-01T02:40:19;97016.16;;;20.05;67.05
44131;BME280;29792;48.726;9.248;2022-08-01T02:42:48;97020.72;;;20.03;67.36
44131;BME280;29792;48.726;9.248;2022-08-01T02:45:14;97023.72;;;20.00;67.70
44131;BME280;29792;48.726;9.248;2022-08-01T02:47:42;97017.44;;;19.94;67.81
44131;BME280;29792;48.726;9.248;2022-08-01T02:50:10;97020.75;;;19.88;67.87
44131;BME280;29792;48.726;9.248;2022-08-01T02:52:37;97025.50;;;19.85;68.24
44131;BME280;29792;48.726;9.248;2022-08-01T02:55:05;97031.88;;;19.82;68.57
44131;BME280;29792;48.726;9.248;2022-08-01T02:57:33;97022.84;;;19.78;68.39
44131;BME280;29792;48.726;9.248;2022-08-01T02:59:59;97023.00;;;19.76;68.55
44131;BME280;29792;48.726;9.248;2022-08-01T03:02:25;97025.31;;;19.71;68.97
44131;BME280;29792;48.726;9.248;2022-08-01T03:04:52;97022.47;;;19.66;68.83
44131;BME280;29792;48.726;9.248;2022-08-01T03:07:18;97023.63;;;19.64;69.32
44131;BME280;29792;48.726;9.248;2022-08-01T03:09:46;97017.00;;;19.61;69.47
44131;BME280;29792;48.726;9.248;2022-08-01T03:12:16;97019.97;;;19.58;69.34
44131;BME280;29792;48.726;9.248;2022-08-01T03:14:43;97019.16;;;19.58;69.36
44131;BME280;29792;48.726;9.248;2022-08-01T03:17:10;97018.34;;;19.57;69.39
44131;BME280;29792;48.726;9.248;2022-08-01T03:19:38;97019.16;;;19.58;69.68
44131;BME280;29792;48.726;9.248;2022-08-01T03:22:06;97020.94;;;19.57;69.93
44131;BME280;29792;48.726;9.248;2022-08-01T03:24:33;97022.91;;;19.55;70.46
44131;BME280;29792;48.726;9.248;2022-08-01T03:27:00;97023.09;;;19.54;70.20
44131;BME280;29792;48.726;9.248;2022-08-01T03:29:27;97029.28;;;19.53;70.58
44131;BME280;29792;48.726;9.248;2022-08-01T03:31:55;97026.03;;;19.51;71.01
44131;BME280;29792;48.726;9.248;2022-08-01T03:34:21;97021.84;;;19.50;70.71
44131;BME280;29792;48.726;9.248;2022-08-01T03:36:49;97026.22;;;19.49;70.83
44131;BME280;29792;48.726;9.248;2022-08-01T03:39:16;97024.59;;;19.48;70.87
44131;BME280;29792;48.726;9.248;2022-08-01T03:41:46;97027.19;;;19.48;70.82
44131;BME280;29792;48.726;9.248;2022-08-01T03:44:15;97029.00;;;19.48;71.19
44131;BME280;29792;48.726;9.248;2022-08-01T03:46:56;97028.34;;;19.46;71.15
44131;BME280;29792;48.726;9.248;2022-08-01T03:49:31;97019.75;;;19.45;70.99
44131;BME280;29792;48.726;9.248;2022-08-01T03:51:58;97021.53;;;19.44;71.08
44131;BME280;29792;48.726;9.248;2022-08-01T03:54:28;97030.31;;;19.43;71.32
44131;BME280;29792;48.726;9.248;2022-08-01T03:56:57;97029.50;;;19.43;71.41
44131;BME280;29792;48.726;9.248;2022-08-01T03:59:23;97029.84;;;19.40;71.48
44131;BME280;29792;48.726;9.248;2022-08-01T04:01:49;97027.41;;;19.38;71.84
44131;BME280;29792;48.726;9.248;2022-08-01T04:04:15;97024.81;;;19.38;72.19
44131;BME280;29792;48.726;9.248;2022-08-01T04:06:41;97019.63;;;19.38;72.79
44131;BME280;29792;48.726;9.248;2022-08-01T04:09:09;97021.25;;;19.39;73.67
44131;BME280;29792;48.726;9.248;2022-08-01T04:11:34;97020.44;;;19.39;73.87
44131;BME280;29792;48.726;9.248;2022-08-01T04:14:00;97023.03;;;19.39;73.91
44131;BME280;29792;48.726;9.248;2022-08-01T04:16:25;97031.81;;;19.38;74.38
44131;BME280;29792;48.726;9.248;2022-08-01T04:18:51;97030.22;;;19.37;74.70
44131;BME280;29792;48.726;9.248;2022-08-01T04:21:23;97032.19;;;19.35;74.99
44131;BME280;29792;48.726;9.248;2022-08-01T04:23:49;97036.41;;;19.36;75.27
44131;BME280;29792;48.726;9.248;2022-08-01T04:26:16;97035.41;;;19.37;75.10
44131;BME280;29792;48.726;9.248;2022-08-01T04:28:44;97034.59;;;19.36;75.50
44131;BME280;29792;48.726;9.248;2022-08-01T04:31:11;97040.63;;;19.37;75.66
44131;BME280;29792;48.726;9.248;2022-08-01T04:33:42;97045.81;;;19.37;75.98
44131;BME280;29792;48.726;9.248;2022-08-01T04:36:12;97048.22;;;19.38;75.96
44131;BME280;29792;48.726;9.248;2022-08-01T04:38:38;97042.19;;;19.38;76.40
44131;BME280;29792;48.726;9.248;2022-08-01T04:41:06;97040.25;;;19.40;76.40
44131;BME280;29792;48.726;9.248;2022-08-01T04:43:32;97048.84;;;19.40;76.64
44131;BME280;29792;48.726;9.248;2022-08-01T04:45:58;97041.84;;;19.41;76.53
44131;BME280;29792;48.726;9.248;2022-08-01T04:48:23;97045.09;;;19.43;77.01
44131;BME280;29792;48.726;9.248;2022-08-01T04:50:49;97051.09;;;19.43;77.05
44131;BME280;29792;48.726;9.248;2022-08-01T04:53:17;97049.31;;;19.44;77.11
44131;BME280;29792;48.726;9.248;2022-08-01T04:55:43;97047.53;;;19.44;77.05
44131;BME280;29792;48.726;9.248;2022-08-01T04:58:10;97052.50;;;19.46;77.77
44131;BME280;29792;48.726;9.248;2022-08-01T05:00:35;97047.19;;;19.48;77.81
44131;BME280;29792;48.726;9.248;2022-08-01T05:03:00;97051.41;;;19.49;77.43
44131;BME280;29792;48.726;9.248;2022-08-01T05:05:26;97047.81;;;19.50;77.63
44131;BME280;29792;48.726;9.248;2022-08-01T05:07:51;97044.88;;;19.53;77.89
44131;BME280;29792;48.726;9.248;2022-08-01T05:10:16;97040.28;;;19.55;77.41
44131;BME280;29792;48.726;9.248;2022-08-01T05:12:42;97042.53;;;19.58;77.82
44131;BME280;29792;48.726;9.248;2022-08-01T05:15:07;97043.19;;;19.60;77.90
44131;BME280;29792;48.726;9.248;2022-08-01T05:17:33;97044.59;;;19.62;77.91
44131;BME280;29792;48.726;9.248;2022-08-01T05:19:58;97048.63;;;19.65;77.78
44131;BME280;29792;48.726;9.248;2022-08-01T05:22:24;97034.31;;;19.69;77.96
44131;BME280;29792;48.726;9.248;2022-08-01T05:24:51;97033.13;;;19.71;77.82
44131;BME280;29792;48.726;9.248;2022-08-01T05:27:17;97035.84;;;19.78;77.81
44131;BME280;29792;48.726;9.248;2022-08-01T05:29:42;97036.91;;;19.84;77.42
44131;BME280;29792;48.726;9.248;2022-08-01T05:32:08;97037.97;;;19.89;77.12
44131;BME280;29792;48.726;9.248;2022-08-01T05:34:34;97036.06;;;19.98;77.63
44131;BME280;29792;48.726;9.248;2022-08-01T05:36:59;97040.38;;;20.05;77.46
44131;BME280;29792;48.726;9.248;2022-08-01T05:39:25;97035.25;;;20.12;78.03
44131;BME280;29792;48.726;9.248;2022-08-01T05:41:50;97037.94;;;20.18;77.78
44131;BME280;29792;48.726;9.248;2022-08-01T05:44:15;97044.84;;;20.26;77.43
44131;BME280;29792;48.726;9.248;2022-08-01T05:46:40;97039.88;;;20.31;77.69
44131;BME280;29792;48.726;9.248;2022-08-01T05:49:06;97046.19;;;20.37;78.01
44131;BME280;29792;48.726;9.248;2022-08-01T05:51:31;97049.06;;;20.42;77.76
44131;BME280;29792;48.726;9.248;2022-08-01T05:53:58;97051.09;;;20.46;77.92
44131;BME280;29792;48.726;9.248;2022-08-01T05:56:24;97054.97;;;20.50;78.17
44131;BME280;29792;48.726;9.248;2022-08-01T05:58:50;97057.81;;;20.55;78.37
44131;BME280;29792;48.726;9.248;2022-08-01T06:01:16;97054.84;;;20.59;78.35
44131;BME280;29792;48.726;9.248;2022-08-01T06:03:41;97057.50;;;20.65;78.31
44131;BME280;29792;48.726;9.248;2022-08-01T06:06:07;97055.94;;;20.71;78.61
44131;BME280;29792;48.726;9.248;2022-08-01T06:08:32;97055.84;;;20.79;77.94
44131;BME280;29792;48.726;9.248;2022-08-01T06:10:58;97054.09;;;20.86;78.16
44131;BME280;29792;48.726;9.248;2022-08-01T06:13:23;97063.41;;;20.95;78.64
44131;BME280;29792;48.726;9.248;2022-08-01T06:15:48;97064.09;;;21.04;78.82
44131;BME280;29792;48.726;9.248;2022-08-01T06:18:14;97058.56;;;21.13;78.73
44131;BME280;29792;48.726;9.248;2022-08-01T06:20:40;97061.47;;;21.25;78.91
44131;BME280;29792;48.726;9.248;2022-08-01T06:23:05;97060.34;;;21.34;78.14
44131;BME280;29792;48.726;9.248;2022-08-01T06:25:31;97066.22;;;21.43;77.84
44131;BME280;29792;48.726;9.248;2022-08-01T06:27:56;97062.50;;;21.52;77.58
44131;BME280;29792;48.726;9.248;2022-08-01T06:30:22;97056.94;;;21.61;76.97
44131;BME280;29792;48.726;9.248;2022-08-01T06:32:47;97058.41;;;21.70;77.31
44131;BME280;29792;48.726;9.248;2022-08-01T06:35:13;97057.25;;;21.80;77.17
44131;BME280;29792;48.726;9.248;2022-08-01T06:37:39;97051.88;;;21.88;76.71
44131;BME280;29792;48.726;9.248;2022-08-01T06:40:05;97054.34;;;21.96;76.57
44131;BME280;29792;48.726;9.248;2022-08-01T06:42:31;97056.00;;;22.03;75.92
44131;BME280;29792;48.726;9.248;2022-08-01T06:45:04;97055.66;;;22.13;76.06
44131;BME280;29792;48.726;9.248;2022-08-01T06:47:29;97061.50;;;22.22;75.20
44131;BME280;29792;48.726;9.248;2022-08-01T06:49:54;97059.75;;;22.29;74.72
44131;BME280;29792;48.726;9.248;2022-08-01T06:52:20;97062.38;;;22.35;73.72
44131;BME280;29792;48.726;9.248;2022-08-01T06:54:45;97063.19;;;22.42;73.16
44131;BME280;29792;48.726;9.248;2022-08-01T06:57:10;97064.03;;;22.50;73.34
44131;BME280;29792;48.726;9.248;2022-08-01T06:59:35;97067.88;;;22.60;72.39
44131;BME280;29792;48.726;9.248;2022-08-01T07:02:01;97066.69;;;22.69;72.74
44131;BME280;29792;48.726;9.248;2022-08-01T07:04:26;97065.50;;;22.78;72.96
44131;BME280;29792;48.726;9.248;2022-08-01T07:06:51;97060.09;;;22.87;72.59
44131;BME280;29792;48.726;9.248;2022-08-01T07:09:17;97066.97;;;22.94;71.91
44131;BME280;29792;48.726;9.248;2022-08-01T07:11:42;97067.56;;;23.03;72.65
44131;BME280;29792;48.726;9.248;2022-08-01T07:14:07;97059.75;;;23.09;72.22
44131;BME280;29792;48.726;9.248;2022-08-01T07:16:33;97067.16;;;23.19;71.29
44131;BME280;29792;48.726;9.248;2022-08-01T07:18:58;97062.53;;;23.28;70.55
44131;BME280;29792;48.726;9.248;2022-08-01T07:21:23;97062.16;;;23.37;71.10
44131;BME280;29792;48.726;9.248;2022-08-01T07:23:49;97063.75;;;23.45;69.53
44131;BME280;29792;48.726;9.248;2022-08-01T07:26:14;97064.00;;;23.56;70.01
44131;BME280;29792;48.726;9.248;2022-08-01T07:28:39;97061.16;;;23.71;69.86
44131;BME280;29792;48.726;9.248;2022-08-01T07:31:04;97060.28;;;23.84;69.81
44131;BME280;29792;48.726;9.248;2022-08-01T07:33:30;97058.66;;;23.96;69.88
44131;BME280;29792;48.726;9.248;2022-08-01T07:35:55;97063.47;;;24.06;69.05
44131;BME280;29792;48.726;9.248;2022-08-01T07:38:20;97063.28;;;24.07;69.06
44131;BME280;29792;48.726;9.248;2022-08-01T07:40:46;97056.59;;;24.11;68.89
44131;BME280;29792;48.726;9.248;2022-08-01T07:43:11;97065.44;;;24.17;68.37
44131;BME280;29792;48.726;9.248;2022-08-01T07:45:36;97059.44;;;24.23;67.41
44131;BME280;29792;48.726;9.248;2022-08-01T07:48:03;97057.75;;;24.35;65.98
44131;BME280;29792;48.726;9.248;2022-08-01T07:50:29;97050.41;;;24.50;65.31
44131;BME280;29792;48.726;9.248;2022-08-01T07:52:55;97052.94;;;24.70;65.98
44131;BME280;29792;48.726;9.248;2022-08-01T07:55:20;97059.28;;;24.87;65.63
44131;BME280;29792;48.726;9.248;2022-08-01T07:57:45;97054.44;;;24.91;64.48
44131;BME280;29792;48.726;9.248;2022-08-01T08:00:11;97059.69;;;24.91;64.85
44131;BME280;29792;48.726;9.248;2022-08-01T08:02:36;97056.88;;;24.86;65.58
44131;BME280;29792;48.726;9.248;2022-08-01T08:05:02;97057.34;;;25.07;65.50
44131;BME280;29792;48.726;9.248;2022-08-01T08:07:28;97056.50;;;25.14;65.36
44131;BME280;29792;48.726;9.248;2022-08-01T08:09:54;97057.75;;;25.11;64.96
44131;BME280;29792;48.726;9.248;2022-08-01T08:12:19;97058.06;;;25.21;64.69
44131;BME280;29792;48.726;9.248;2022-08-01T08:14:44;97052.28;;;25.37;63.50
44131;BME280;29792;48.726;9.248;2022-08-01T08:17:09;97045.66;;;25.60;64.36
44131;BME280;29792;48.726;9.248;2022-08-01T08:19:35;97045.22;;;25.81;65.51
44131;BME280;29792;48.726;9.248;2022-08-01T08:22:02;97042.81;;;25.98;62.47
44131;BME280;29792;48.726;9.248;2022-08-01T08:24:27;97040.63;;;26.13;62.19
44131;BME280;29792;48.726;9.248;2022-08-01T08:26:56;97045.91;;;26.31;62.08
44131;BME280;29792;48.726;9.248;2022-08-01T08:29:23;97051.78;;;26.45;62.19
44131;BME280;29792;48.726;9.248;2022-08-01T08:31:49;97051.25;;;26.54;61.15
44131;BME280;29792;48.726;9.248;2022-08-01T08:34:16;97048.41;;;26.56;61.43
44131;BME280;29792;48.726;9.248;2022-08-01T08:36:41;97038.00;;;26.61;60.80
44131;BME280;29792;48.726;9.248;2022-08-01T08:39:07;97041.22;;;26.63;58.20
44131;BME280;29792;48.726;9.248;2022-08-01T08:41:33;97038.59;;;26.63;58.69
44131;BME280;29792;48.726;9.248;2022-08-01T08:44:00;97039.63;;;26.62;59.18
44131;BME280;29792;48.726;9.248;2022-08-01T08:46:27;97045.63;;;26.81;60.85
44131;BME280;29792;48.726;9.248;2022-08-01T08:48:53;97049.03;;;27.11;59.39
44131;BME280;29792;48.726;9.248;2022-08-01T08:51:18;97041.06;;;27.41;58.49
44131;BME280;29792;48.726;9.248;2022-08-01T08:53:46;97040.63;;;27.67;58.28
44131;BME280;29792;48.726;9.248;2022-08-01T08:56:12;97043.94;;;27.75;56.24
44131;BME280;29792;48.726;9.248;2022-08-01T08:58:40;97040.66;;;27.56;55.88
44131;BME280;29792;48.726;9.248;2022-08-01T09:01:06;97037.88;;;27.39;57.41
44131;BME280;29792;48.726;9.248;2022-08-01T09:03:34;97041.75;;;27.37;57.87
44131;BME280;29792;48.726;9.248;2022-08-01T09:05:59;97043.69;;;27.41;57.08
44131;BME280;29792;48.726;9.248;2022-08-01T09:08:24;97048.84;;;27.48;57.37
44131;BME280;29792;48.726;9.248;2022-08-01T09:10:50;97047.97;;;27.54;57.22
44131;BME280;29792;48.726;9.248;2022-08-01T09:13:15;97045.34;;;27.54;55.26
44131;BME280;29792;48.726;9.248;2022-08-01T09:15:49;97043.03;;;27.57;55.47
44131;BME280;29792;48.726;9.248;2022-08-01T09:26:08;97055.78;;;27.19;55.00
44131;BME280;29792;48.726;9.248;2022-08-01T09:28:35;97042.41;;;27.20;57.11
44131;BME280;29792;48.726;9.248;2022-08-01T09:31:09;97048.13;;;27.17;55.41
44131;BME280;29792;48.726;9.248;2022-08-01T09:33:55;97048.13;;;27.06;54.62
44131;BME280;29792;48.726;9.248;2022-08-01T09:36:23;97061.22;;;26.94;54.88
44131;BME280;29792;48.726;9.248;2022-08-01T09:38:49;97053.53;;;26.81;55.00
44131;BME280;29792;48.726;9.248;2022-08-01T09:41:15;97058.88;;;26.74;56.03
44131;BME280;29792;48.726;9.248;2022-08-01T09:43:47;97053.31;;;26.82;56.76
44131;BME280;29792;48.726;9.248;2022-08-01T09:46:13;97058.97;;;26.98;57.13
44131;BME280;29792;48.726;9.248;2022-08-01T09:48:58;97050.28;;;27.09;55.72
44131;BME280;29792;48.726;9.248;2022-08-01T09:51:31;97048.03;;;27.24;57.65
44131;BME280;29792;48.726;9.248;2022-08-01T09:53:57;97039.34;;;27.47;57.39
44131;BME280;29792;48.726;9.248;2022-08-01T09:56:22;97048.53;;;27.67;56.56
44131;BME280;29792;48.726;9.248;2022-08-01T09:58:58;97045.75;;;27.86;56.41
44131;BME280;29792;48.726;9.248;2022-08-01T10:01:24;97052.25;;;28.06;54.64
44131;BME280;29792;48.726;9.248;2022-08-01T10:04:13;97045.47;;;28.22;55.41
44131;BME280;29792;48.726;9.248;2022-08-01T10:06:44;97044.88;;;28.32;54.01
44131;BME280;29792;48.726;9.248;2022-08-01T10:09:12;97040.97;;;28.34;52.63
44131;BME280;29792;48.726;9.248;2022-08-01T10:11:38;97043.75;;;28.28;53.92
44131;BME280;29792;48.726;9.248;2022-08-01T10:14:05;97039.09;;;28.18;54.60
44131;BME280;29792;48.726;9.248;2022-08-01T10:16:33;97037.38;;;28.00;52.86
44131;BME280;29792;48.726;9.248;2022-08-01T10:19:00;97036.16;;;27.80;52.81
44131;BME280;29792;48.726;9.248;2022-08-01T10:21:27;97036.97;;;27.57;53.21
44131;BME280;29792;48.726;9.248;2022-08-01T10:23:54;97032.03;;;27.37;53.05
44131;BME280;29792;48.726;9.248;2022-08-01T10:26:20;97030.06;;;27.32;54.04
44131;BME280;29792;48.726;9.248;2022-08-01T10:28:48;97032.59;;;27.39;54.61
44131;BME280;29792;48.726;9.248;2022-08-01T10:31:13;97033.38;;;27.51;55.18
44131;BME280;29792;48.726;9.248;2022-08-01T10:33:39;97025.63;;;27.68;55.48
44131;BME280;29792;48.726;9.248;2022-08-01T10:36:06;97025.16;;;27.83;54.62
44131;BME280;29792;48.726;9.248;2022-08-01T10:38:32;97018.34;;;27.98;54.67
44131;BME280;29792;48.726;9.248;2022-08-01T10:40:59;97021.56;;;28.12;54.53
44131;BME280;29792;48.726;9.248;2022-08-01T10:43:25;97024.75;;;28.26;54.14
44131;BME280;29792;48.726;9.248;2022-08-01T10:45:50;97025.25;;;28.39;54.61
44131;BME280;29792;48.726;9.248;2022-08-01T10:51:11;97021.84;;;28.56;51.24
44131;BME280;29792;48.726;9.248;2022-08-01T10:53:46;97024.66;;;28.49;51.43
44131;BME280;29792;48.726;9.248;2022-08-01T10:56:12;97023.41;;;28.40;52.39
44131;BME280;29792;48.726;9.248;2022-08-01T10:58:39;97017.19;;;28.29;52.63
44131;BME280;29792;48.726;9.248;2022-08-01T11:01:25;97020.53;;;28.13;52.10
44131;BME280;29792;48.726;9.248;2022-08-01T11:04:13;97019.53;;;27.91;53.37
44131;BME280;29792;48.726;9.248;2022-08-01T11:06:41;97016.44;;;27.82;53.23
44131;BME280;29792;48.726;9.248;2022-08-01T11:12:01;97021.88;;;27.64;54.47
44131;BME280;29792;48.726;9.248;2022-08-01T11:14:28;97017.75;;;27.56;52.45
44131;BME280;29792;48.726;9.248;2022-08-01T11:16:54;97012.56;;;27.50;53.93
44131;BME280;29792;48.726;9.248;2022-08-01T11:19:20;97011.44;;;27.46;53.67
44131;BME280;29792;48.726;9.248;2022-08-01T11:27:32;97002.97;;;27.67;51.64
44131;BME280;29792;48.726;9.248;2022-08-01T11:32:48;96986.88;;;27.92;52.88
44131;BME280;29792;48.726;9.248;2022-08-01T11:35:15;96996.47;;;27.98;50.71
44131;BME280;29792;48.726;9.248;2022-08-01T11:37:40;96998.00;;;27.94;51.10
44131;BME280;29792;48.726;9.248;2022-08-01T11:42:40;96996.75;;;27.73;52.01
44131;BME280;29792;48.726;9.248;2022-08-01T11:45:06;96997.59;;;27.62;52.71
44131;BME280;29792;48.726;9.248;2022-08-01T11:47:53;96995.41;;;27.47;52.37
44131;BME280;29792;48.726;9.248;2022-08-01T11:50:32;96992.78;;;27.35;52.11
44131;BME280;29792;48.726;9.248;2022-08-01T11:53:03;97003.06;;;27.25;51.42
44131;BME280;29792;48.726;9.248;2022-08-01T11:55:29;96996.53;;;27.16;51.01
44131;BME280;29792;48.726;9.248;2022-08-01T11:58:02;96991.28;;;27.05;51.68
44131;BME280;29792;48.726;9.248;2022-08-01T12:00:28;97000.31;;;26.97;53.08
44131;BME280;29792;48.726;9.248;2022-08-01T12:03:04;96992.13;;;26.87;53.06
44131;BME280;29792;48.726;9.248;2022-08-01T12:05:30;96984.56;;;26.79;52.28
44131;BME280;29792;48.726;9.248;2022-08-01T12:07:56;96985.50;;;26.73;52.99
44131;BME280;29792;48.726;9.248;2022-08-01T12:10:24;96980.09;;;26.68;54.41
44131;BME280;29792;48.726;9.248;2022-08-01T12:12:55;96976.09;;;26.65;53.57
44131;BME280;29792;48.726;9.248;2022-08-01T12:15:23;96977.34;;;26.63;52.21
44131;BME280;29792;48.726;9.248;2022-08-01T12:18:00;96966.81;;;26.63;53.83
44131;BME280;29792;48.726;9.248;2022-08-01T12:20:28;96971.44;;;26.67;54.70
44131;BME280;29792;48.726;9.248;2022-08-01T12:22:55;96973.16;;;26.73;55.63
44131;BME280;29792;48.726;9.248;2022-08-01T12:25:21;96968.47;;;26.75;56.19
44131;BME280;29792;48.726;9.248;2022-08-01T12:27:47;96960.59;;;26.75;56.53
44131;BME280;29792;48.726;9.248;2022-08-01T12:30:20;96963.97;;;26.76;56.77
44131;BME280;29792;48.726;9.248;2022-08-01T12:32:48;96963.22;;;26.75;56.48
44131;BME280;29792;48.726;9.248;2022-08-01T12:35:24;96955.66;;;26.79;56.50
44131;BME280;29792;48.726;9.248;2022-08-01T12:37:55;96963.09;;;26.82;56.85
44131;BME280;29792;48.726;9.248;2022-08-01T12:40:29;96961.28;;;26.82;56.90
44131;BME280;29792;48.726;9.248;2022-08-01T12:43:05;96956.69;;;26.78;55.68
44131;BME280;29792;48.726;9.248;2022-08-01T12:45:37;96958.97;;;26.74;55.40
44131;BME280;29792;48.726;9.248;2022-08-01T12:48:09;96955.66;;;26.67;54.97
44131;BME280;29792;48.726;9.248;2022-08-01T12:50:38;96959.53;;;26.65;56.13
44131;BME280;29792;48.726;9.248;2022-08-01T12:53:04;96955.72;;;26.60;55.09
44131;BME280;29792;48.726;9.248;2022-08-01T12:55:30;96954.94;;;26.60;55.41
44131;BME280;29792;48.726;9.248;2022-08-01T12:58:05;96963.19;;;26.64;56.77
44131;BME280;29792;48.726;9.248;2022-08-01T13:00:31;96958.63;;;26.71;58.32
44131;BME280;29792;48.726;9.248;2022-08-01T13:03:04;96950.97;;;26.81;55.43
44131;BME280;29792;48.726;9.248;2022-08-01T13:05:53;96950.13;;;26.99;53.65
44131;BME280;29792;48.726;9.248;2022-08-01T13:11:04;96952.97;;;27.20;52.47
44131;BME280;29792;48.726;9.248;2022-08-01T13:13:43;96947.72;;;27.32;55.04
44131;BME280;29792;48.726;9.248;2022-08-01T13:16:12;96942.78;;;27.47;52.94
44131;BME280;29792;48.726;9.248;2022-08-01T13:18:37;96938.09;;;27.61;53.62
44131;BME280;29792;48.726;9.248;2022-08-01T13:21:08;96941.00;;;27.76;54.35
44131;BME280;29792;48.726;9.248;2022-08-01T13:23:34;96938.09;;;27.89;52.27
44131;BME280;29792;48.726;9.248;2022-08-01T13:25:59;96930.75;;;28.03;53.06
44131;BME280;29792;48.726;9.248;2022-08-01T13:28:26;96927.25;;;28.14;51.54
44131;BME280;29792;48.726;9.248;2022-08-01T13:30:54;96931.47;;;28.15;49.88
44131;BME280;29792;48.726;9.248;2022-08-01T13:33:19;96924.28;;;28.10;49.94
44131;BME280;29792;48.726;9.248;2022-08-01T13:35:44;96919.97;;;28.04;50.65
44131;BME280;29792;48.726;9.248;2022-08-01T13:38:11;96926.44;;;27.97;51.29